createdAt,value
2024-01-21T00:00:28.629Z,102618.28
2024-01-21T00:01:30.268Z,102620.66
2024-01-21T00:02:32.201Z,102613.69
2024-01-21T00:03:33.913Z,102610.06
2024-01-21T00:04:35.556Z,102609.00
2024-01-21T00:05:37.243Z,102614.13
2024-01-21T00:06:40.316Z,102620.78
2024-01-21T00:07:41.912Z,102624.63
2024-01-21T00:08:43.540Z,102623.53
2024-01-21T00:09:45.219Z,102620.31
2024-01-21T00:10:46.872Z,102621.56
2024-01-21T00:11:48.450Z,102608.38
2024-01-21T00:12:50.113Z,102601.84
2024-01-21T00:13:51.735Z,102605.25
2024-01-21T00:14:53.424Z,102609.63
2024-01-21T00:15:55.092Z,102615.84
2024-01-21T00:16:56.655Z,102603.88
2024-01-21T00:18:00.161Z,102602.09
2024-01-21T00:19:01.954Z,102596.16
2024-01-21T00:20:04.069Z,102600.56
2024-01-21T00:21:05.890Z,102601.03
2024-01-21T00:22:08.824Z,102599.94
2024-01-21T00:23:10.475Z,102596.75
2024-01-21T00:24:12.136Z,102602.19
2024-01-21T00:25:13.834Z,102596.41
2024-01-21T00:26:15.581Z,102600.50
2024-01-21T00:27:18.054Z,102598.50
2024-01-21T00:28:19.686Z,102602.25
2024-01-21T00:29:21.402Z,102585.13
2024-01-21T00:30:23.362Z,102596.22
2024-01-21T00:31:25.008Z,102587.47
2024-01-21T00:32:26.647Z,102586.97
2024-01-21T00:33:28.382Z,102600.13
2024-01-21T00:34:30.353Z,102594.69
2024-01-21T00:35:32.029Z,102595.16
2024-01-21T00:36:33.618Z,102588.03
2024-01-21T00:37:36.603Z,102588.03
2024-01-21T00:38:38.225Z,102586.50
2024-01-21T00:39:39.975Z,102591.03
2024-01-21T00:40:42.500Z,102599.72
2024-01-21T00:41:53.349Z,102601.91
2024-01-21T00:42:59.572Z,102597.91
2024-01-21T00:44:01.261Z,102605.28
2024-01-21T00:45:03.084Z,102605.00
2024-01-21T00:46:05.288Z,102604.31
2024-01-21T00:47:07.076Z,102602.72
2024-01-21T00:48:08.799Z,102599.94
2024-01-21T00:49:10.620Z,102598.72
2024-01-21T00:50:12.710Z,102600.09
2024-01-21T00:51:14.320Z,102600.56
2024-01-21T00:52:15.956Z,102598.16
2024-01-21T00:53:18.869Z,102600.16
2024-01-21T00:54:20.563Z,102590.28
2024-01-21T00:55:22.165Z,102594.94
2024-01-21T00:56:23.699Z,102592.44
2024-01-21T00:57:25.456Z,102590.44
2024-01-21T00:58:28.581Z,102586.50
2024-01-21T00:59:30.359Z,102584.63
2024-01-21T01:00:32.222Z,102591.38
2024-01-21T01:01:33.881Z,102584.25
2024-01-21T01:02:35.483Z,102581.53
2024-01-21T01:03:37.145Z,102583.50
2024-01-21T01:04:38.785Z,102594.78
2024-01-21T01:05:40.494Z,102592.66
2024-01-21T01:06:42.321Z,102589.25
2024-01-21T01:07:43.875Z,102586.53
2024-01-21T01:08:46.914Z,102581.59
2024-01-21T01:09:48.719Z,102579.09
2024-01-21T01:10:50.376Z,102576.16
2024-01-21T01:11:51.969Z,102587.03
2024-01-21T01:12:53.727Z,102579.03
2024-01-21T01:13:55.249Z,102581.97
2024-01-21T01:14:56.794Z,102585.13
2024-01-21T01:15:59.506Z,102585.19
2024-01-21T01:17:01.116Z,102580.56
2024-01-21T01:18:02.833Z,102588.22
2024-01-21T01:19:04.482Z,102579.41
2024-01-21T01:20:07.303Z,102580.38
2024-01-21T01:21:09.219Z,102575.22
2024-01-21T01:22:10.847Z,102577.03
2024-01-21T01:23:12.457Z,102581.28
2024-01-21T01:24:15.393Z,102580.66
2024-01-21T01:25:16.968Z,102574.94
2024-01-21T01:26:18.535Z,102578.56
2024-01-21T01:27:20.388Z,102586.72
2024-01-21T01:28:21.980Z,102574.81
2024-01-21T01:29:23.609Z,102571.78
2024-01-21T01:30:25.283Z,102576.00
2024-01-21T01:31:26.936Z,102575.56
2024-01-21T01:32:28.590Z,102573.63
2024-01-21T01:33:30.393Z,102575.34
2024-01-21T01:34:32.234Z,102577.91
2024-01-21T01:35:33.828Z,102568.66
2024-01-21T01:36:35.356Z,102569.84
2024-01-21T01:37:36.932Z,102560.63
2024-01-21T01:38:40.290Z,102565.03
2024-01-21T01:39:43.405Z,102574.88
2024-01-21T01:40:45.133Z,102569.72
2024-01-21T01:41:46.703Z,102574.44
2024-01-21T01:42:54.045Z,102573.41
2024-01-21T01:43:55.634Z,102574.63
2024-01-21T01:44:57.281Z,102564.47
2024-01-21T01:45:59.091Z,102566.28
2024-01-21T01:47:00.652Z,102560.53
2024-01-21T01:48:03.273Z,102556.59
2024-01-21T01:49:05.408Z,102570.19
2024-01-21T01:50:07.940Z,102576.09
2024-01-21T01:51:09.868Z,102568.38
2024-01-21T01:52:14.041Z,102574.63
2024-01-21T01:53:15.932Z,102565.16
2024-01-21T01:54:17.741Z,102565.13
2024-01-21T01:55:20.797Z,102569.56
2024-01-21T01:56:22.487Z,102571.44
2024-01-21T01:57:24.581Z,102570.78
2024-01-21T01:58:28.374Z,102563.91
2024-01-21T01:59:33.121Z,102566.81
2024-01-21T02:00:34.779Z,102569.41
2024-01-21T02:01:37.525Z,102559.13
2024-01-21T02:02:40.113Z,102568.06
2024-01-21T02:03:42.706Z,102563.09
2024-01-21T02:04:44.430Z,102562.44
2024-01-21T02:05:48.657Z,102561.59
2024-01-21T02:06:50.199Z,102560.41
2024-01-21T02:07:51.762Z,102567.09
2024-01-21T02:08:53.329Z,102563.75
2024-01-21T02:09:55.010Z,102563.50
2024-01-21T02:10:57.923Z,102557.44
2024-01-21T02:11:59.542Z,102546.56
2024-01-21T02:13:01.328Z,102546.75
2024-01-21T02:14:03.129Z,102551.03
2024-01-21T02:15:05.659Z,102560.91
2024-01-21T02:16:07.769Z,102546.63
2024-01-21T02:17:09.404Z,102548.22
2024-01-21T02:18:11.181Z,102548.72
2024-01-21T02:19:24.504Z,102549.97
2024-01-21T02:20:26.762Z,102557.69
2024-01-21T02:21:28.338Z,102551.03
2024-01-21T02:22:31.743Z,102550.63
2024-01-21T02:23:34.762Z,102546.78
2024-01-21T02:24:36.428Z,102548.34
2024-01-21T02:25:38.190Z,102556.25
2024-01-21T02:26:39.898Z,102550.00
2024-01-21T02:27:41.758Z,102543.28
2024-01-21T02:28:43.473Z,102540.34
2024-01-21T02:29:45.050Z,102542.19
2024-01-21T02:30:46.608Z,102546.00
2024-01-21T02:31:49.961Z,102539.34
2024-01-21T02:32:52.123Z,102535.84
2024-01-21T02:33:53.902Z,102528.25
2024-01-21T02:34:55.605Z,102534.19
2024-01-21T02:35:57.324Z,102536.94
2024-01-21T02:36:59.117Z,102530.44
2024-01-21T02:38:00.733Z,102536.06
2024-01-21T02:39:06.195Z,102525.78
2024-01-21T02:40:09.162Z,102524.25
2024-01-21T02:41:10.872Z,102521.38
2024-01-21T02:42:12.755Z,102524.09
2024-01-21T02:43:14.413Z,102518.19
2024-01-21T02:44:15.953Z,102524.59
2024-01-21T02:45:17.508Z,102527.00
2024-01-21T02:46:19.143Z,102521.03
2024-01-21T02:47:20.700Z,102529.91
2024-01-21T02:48:22.322Z,102524.03
2024-01-21T02:49:24.246Z,102525.53
2024-01-21T02:50:26.056Z,102533.22
2024-01-21T02:51:30.727Z,102527.22
2024-01-21T02:52:32.520Z,102525.25
2024-01-21T02:53:34.139Z,102536.59
2024-01-21T02:54:38.285Z,102538.84
2024-01-21T02:55:39.822Z,102531.03
2024-01-21T02:56:41.516Z,102535.28
2024-01-21T02:57:43.082Z,102525.88
2024-01-21T02:58:44.694Z,102522.41
2024-01-21T02:59:46.725Z,102522.72
2024-01-21T03:00:48.552Z,102521.16
2024-01-21T03:01:50.502Z,102527.06
2024-01-21T03:02:52.294Z,102517.81
2024-01-21T03:03:55.588Z,102532.22
2024-01-21T03:04:57.145Z,102524.63
2024-01-21T03:05:58.762Z,102519.97
2024-01-21T03:07:03.248Z,102523.50
2024-01-21T03:08:06.009Z,102521.44
2024-01-21T03:09:07.711Z,102533.38
2024-01-21T03:10:10.844Z,102520.50
2024-01-21T03:11:12.434Z,102528.47
2024-01-21T03:12:17.510Z,102524.78
2024-01-21T03:13:19.185Z,102530.19
2024-01-21T03:14:20.823Z,102526.22
2024-01-21T03:15:22.546Z,102524.28
2024-01-21T03:16:24.643Z,102534.03
2024-01-21T03:17:27.350Z,102520.75
2024-01-21T03:18:29.006Z,102522.41
2024-01-21T03:19:30.699Z,102512.81
2024-01-21T03:20:32.446Z,102523.38
2024-01-21T03:21:34.084Z,102524.28
2024-01-21T03:22:35.734Z,102512.53
2024-01-21T03:23:37.321Z,102512.38
2024-01-21T03:24:39.001Z,102506.88
2024-01-21T03:25:41.999Z,102516.56
2024-01-21T03:26:43.615Z,102510.38
2024-01-21T03:27:46.944Z,102512.44
2024-01-21T03:28:50.138Z,102511.03
2024-01-21T03:29:51.904Z,102514.53
2024-01-21T03:30:53.548Z,102505.59
2024-01-21T03:31:55.475Z,102512.31
2024-01-21T03:32:57.404Z,102504.28
2024-01-21T03:33:59.140Z,102504.09
2024-01-21T03:35:00.768Z,102502.25
2024-01-21T03:36:02.473Z,102508.47
2024-01-21T03:37:04.657Z,102503.25
2024-01-21T03:38:06.498Z,102502.22
2024-01-21T03:39:08.249Z,102509.78
2024-01-21T03:40:10.830Z,102508.28
2024-01-21T03:41:13.946Z,102512.78
2024-01-21T03:42:16.339Z,102508.69
2024-01-21T03:43:18.242Z,102518.16
2024-01-21T03:44:19.949Z,102523.06
2024-01-21T03:45:21.683Z,102515.25
2024-01-21T03:46:24.111Z,102524.69
2024-01-21T03:47:25.692Z,102522.03
2024-01-21T03:48:27.442Z,102520.38
2024-01-21T03:49:29.641Z,102528.47
2024-01-21T03:50:31.294Z,102526.41
2024-01-21T03:51:32.927Z,102509.91
2024-01-21T03:52:34.511Z,102516.69
2024-01-21T03:53:36.042Z,102517.94
2024-01-21T03:54:37.632Z,102516.81
2024-01-21T03:55:39.244Z,102517.44
2024-01-21T03:56:42.121Z,102522.03
2024-01-21T03:57:43.787Z,102524.41
2024-01-21T03:58:46.496Z,102528.66
2024-01-21T03:59:48.416Z,102517.38
2024-01-21T04:00:50.094Z,102529.97
2024-01-21T04:01:51.841Z,102531.53
2024-01-21T04:02:53.419Z,102535.16
2024-01-21T04:03:55.036Z,102528.03
2024-01-21T04:04:56.717Z,102523.59
2024-01-21T04:05:58.358Z,102523.69
2024-01-21T04:07:00.021Z,102518.34
2024-01-21T04:08:01.647Z,102522.44
2024-01-21T04:09:03.246Z,102522.59
2024-01-21T04:10:05.410Z,102515.78
2024-01-21T04:11:06.945Z,102513.84
2024-01-21T04:12:12.521Z,102519.00
2024-01-21T04:13:14.349Z,102518.09
2024-01-21T04:14:16.012Z,102520.50
2024-01-21T04:15:17.612Z,102508.41
2024-01-21T04:16:19.227Z,102504.41
2024-01-21T04:17:22.824Z,102516.00
2024-01-21T04:18:24.486Z,102496.47
2024-01-21T04:19:26.162Z,102498.41
2024-01-21T04:20:27.924Z,102501.72
2024-01-21T04:21:29.522Z,102500.56
2024-01-21T04:22:31.132Z,102497.22
2024-01-21T04:23:32.684Z,102493.06
2024-01-21T04:24:35.193Z,102492.19
2024-01-21T04:25:36.857Z,102490.84
2024-01-21T04:26:38.460Z,102494.19
2024-01-21T04:27:41.340Z,102489.19
2024-01-21T04:28:42.914Z,102494.22
2024-01-21T04:29:44.517Z,102491.88
2024-01-21T04:30:46.112Z,102481.13
2024-01-21T04:31:47.860Z,102483.78
2024-01-21T04:32:49.593Z,102483.97
2024-01-21T04:33:51.180Z,102492.16
2024-01-21T04:34:54.426Z,102486.38
2024-01-21T04:35:56.117Z,102490.78
2024-01-21T04:36:57.686Z,102481.41
2024-01-21T04:37:59.307Z,102485.94
2024-01-21T04:39:00.841Z,102487.13
2024-01-21T04:40:02.359Z,102486.06
2024-01-21T04:41:04.191Z,102480.28
2024-01-21T04:42:05.807Z,102475.44
2024-01-21T04:43:08.710Z,102488.81
2024-01-21T04:44:10.275Z,102480.00
2024-01-21T04:45:12.506Z,102489.06
2024-01-21T04:46:14.201Z,102482.41
2024-01-21T04:47:15.821Z,102476.41
2024-01-21T04:48:17.560Z,102474.47
2024-01-21T04:49:19.420Z,102488.25
2024-01-21T04:50:21.122Z,102480.00
2024-01-21T04:51:22.821Z,102480.16
2024-01-21T04:52:24.418Z,102485.88
2024-01-21T04:53:27.685Z,102476.63
2024-01-21T04:54:30.073Z,102474.09
2024-01-21T04:55:31.710Z,102464.09
2024-01-21T04:56:33.294Z,102477.47
2024-01-21T04:57:35.037Z,102477.63
2024-01-21T04:58:37.959Z,102468.88
2024-01-21T04:59:39.669Z,102476.16
2024-01-21T05:00:41.380Z,102478.00
2024-01-21T05:01:43.001Z,102474.25
2024-01-21T05:02:44.676Z,102478.75
2024-01-21T05:03:46.425Z,102472.16
2024-01-21T05:04:48.077Z,102475.97
2024-01-21T05:05:50.556Z,102474.97
2024-01-21T05:06:56.551Z,102473.50
2024-01-21T05:07:58.204Z,102466.53
2024-01-21T05:08:59.813Z,102469.16
2024-01-21T05:10:01.441Z,102463.19
2024-01-21T05:11:03.216Z,102470.38
2024-01-21T05:12:05.332Z,102476.34
2024-01-21T05:13:07.038Z,102473.31
2024-01-21T05:14:09.921Z,102465.75
2024-01-21T05:15:11.737Z,102464.22
2024-01-21T05:16:13.395Z,102468.97
2024-01-21T05:17:15.102Z,102460.50
2024-01-21T05:18:16.927Z,102460.66
2024-01-21T05:19:18.575Z,102458.41
2024-01-21T05:20:20.149Z,102463.72
2024-01-21T05:21:22.397Z,102464.16
2024-01-21T05:22:24.184Z,102477.06
2024-01-21T05:23:25.760Z,102463.59
2024-01-21T05:24:27.379Z,102462.25
2024-01-21T05:25:28.890Z,102456.34
2024-01-21T05:26:30.426Z,102452.13
2024-01-21T05:27:33.032Z,102453.91
2024-01-21T05:28:34.584Z,102449.06
2024-01-21T05:29:38.350Z,102456.03
2024-01-21T05:30:40.075Z,102452.72
2024-01-21T05:31:41.659Z,102453.78
2024-01-21T05:32:43.298Z,102448.16
2024-01-21T05:33:44.943Z,102441.78
2024-01-21T05:34:46.656Z,102439.97
2024-01-21T05:35:48.330Z,102447.25
2024-01-21T05:36:49.961Z,102445.72
2024-01-21T05:37:51.752Z,102450.25
2024-01-21T05:38:53.362Z,102454.22
2024-01-21T05:39:55.056Z,102454.69
2024-01-21T05:40:56.654Z,102449.22
2024-01-21T05:42:01.662Z,102452.31
2024-01-21T05:43:03.514Z,102453.25
2024-01-21T05:44:05.560Z,102463.75
2024-01-21T05:45:09.303Z,102471.25
2024-01-21T05:46:11.165Z,102460.13
2024-01-21T05:47:12.759Z,102454.44
2024-01-21T05:48:14.480Z,102456.00
2024-01-21T05:49:16.147Z,102449.19
2024-01-21T05:50:17.949Z,102454.19
2024-01-21T05:51:19.759Z,102447.25
2024-01-21T05:52:21.534Z,102453.16
2024-01-21T05:53:23.124Z,102449.22
2024-01-21T05:54:24.846Z,102442.41
2024-01-21T05:55:26.488Z,102442.38
2024-01-21T05:56:28.191Z,102439.94
2024-01-21T05:57:29.745Z,102448.75
2024-01-21T05:58:31.336Z,102447.06
2024-01-21T05:59:32.945Z,102444.34
2024-01-21T06:00:36.003Z,102453.16
2024-01-21T06:01:37.920Z,102443.25
2024-01-21T06:02:39.772Z,102443.59
2024-01-21T06:03:41.476Z,102446.03
2024-01-21T06:04:43.120Z,102435.22
2024-01-21T06:05:44.755Z,102439.00
2024-01-21T06:06:46.429Z,102447.22
2024-01-21T06:07:48.164Z,102444.91
2024-01-21T06:08:49.764Z,102435.03
2024-01-21T06:09:51.391Z,102432.00
2024-01-21T06:10:52.945Z,102425.59
2024-01-21T06:11:54.485Z,102432.72
2024-01-21T06:12:56.056Z,102419.94
2024-01-21T06:13:57.581Z,102423.16
2024-01-21T06:14:59.130Z,102432.31
2024-01-21T06:16:02.379Z,102417.59
2024-01-21T06:17:04.528Z,102430.78
2024-01-21T06:18:06.218Z,102423.34
2024-01-21T06:19:07.942Z,102416.69
2024-01-21T06:20:10.588Z,102423.47
2024-01-21T06:21:12.175Z,102420.75
2024-01-21T06:22:13.839Z,102418.94
2024-01-21T06:23:15.371Z,102411.06
2024-01-21T06:24:16.913Z,102418.03
2024-01-21T06:25:18.666Z,102415.31
2024-01-21T06:26:21.124Z,102408.34
2024-01-21T06:27:22.936Z,102411.19
2024-01-21T06:28:24.574Z,102414.09
2024-01-21T06:29:26.154Z,102409.53
2024-01-21T06:30:27.719Z,102410.78
2024-01-21T06:31:30.742Z,102411.50
2024-01-21T06:32:32.321Z,102418.34
2024-01-21T06:33:34.026Z,102420.19
2024-01-21T06:34:36.106Z,102414.13
2024-01-21T06:35:37.726Z,102415.66
2024-01-21T06:36:42.199Z,102416.25
2024-01-21T06:37:43.814Z,102413.22
2024-01-21T06:38:45.423Z,102411.09
2024-01-21T06:39:54.764Z,102409.88
2024-01-21T06:41:02.194Z,102401.19
2024-01-21T06:42:04.168Z,102401.31
2024-01-21T06:43:05.800Z,102398.31
2024-01-21T06:44:07.341Z,102405.47
2024-01-21T06:45:12.127Z,102410.03
2024-01-21T06:46:15.293Z,102408.38
2024-01-21T06:47:18.231Z,102406.25
2024-01-21T06:48:19.984Z,102406.97
2024-01-21T06:49:22.032Z,102413.69
2024-01-21T06:50:23.679Z,102404.72
2024-01-21T06:51:25.435Z,102409.75
2024-01-21T06:52:27.003Z,102413.53
2024-01-21T06:53:28.592Z,102419.00
2024-01-21T06:54:30.187Z,102417.94
2024-01-21T06:55:31.756Z,102410.63
2024-01-21T06:56:33.338Z,102406.97
2024-01-21T06:57:35.302Z,102422.88
2024-01-21T06:58:37.212Z,102412.09
2024-01-21T06:59:38.880Z,102413.91
2024-01-21T07:00:41.194Z,102410.00
2024-01-21T07:01:43.295Z,102402.25
2024-01-21T07:02:46.375Z,102419.28
2024-01-21T07:03:48.010Z,102412.91
2024-01-21T07:04:49.661Z,102408.97
2024-01-21T07:05:51.252Z,102416.38
2024-01-21T07:06:52.905Z,102413.22
2024-01-21T07:07:54.496Z,102410.81
2024-01-21T07:08:56.072Z,102410.50
2024-01-21T07:09:57.659Z,102418.84
2024-01-21T07:10:59.438Z,102406.34
2024-01-21T07:12:01.132Z,102404.25
2024-01-21T07:13:04.043Z,102406.06
2024-01-21T07:14:05.751Z,102399.19
2024-01-21T07:15:08.197Z,102397.56
2024-01-21T07:16:12.690Z,102394.34
2024-01-21T07:17:14.319Z,102400.09
2024-01-21T07:18:19.114Z,102394.78
2024-01-21T07:19:20.826Z,102397.25
2024-01-21T07:20:22.556Z,102397.97
2024-01-21T07:21:27.451Z,102397.91
2024-01-21T07:22:29.516Z,102395.38
2024-01-21T07:23:31.080Z,102395.78
2024-01-21T07:24:32.695Z,102396.69
2024-01-21T07:25:35.019Z,102387.91
2024-01-21T07:26:37.136Z,102387.13
2024-01-21T07:27:38.760Z,102398.03
2024-01-21T07:28:40.679Z,102387.06
2024-01-21T07:29:42.352Z,102381.44
2024-01-21T07:30:44.752Z,102380.41
2024-01-21T07:31:46.419Z,102377.69
2024-01-21T07:32:50.147Z,102379.63
2024-01-21T07:33:58.166Z,102372.72
2024-01-21T07:35:00.528Z,102376.19
2024-01-21T07:36:02.152Z,102372.66
2024-01-21T07:37:05.512Z,102377.81
2024-01-21T07:38:07.596Z,102370.84
2024-01-21T07:39:09.286Z,102373.88
2024-01-21T07:40:19.891Z,102376.13
2024-01-21T07:41:22.752Z,102378.72
2024-01-21T07:42:25.514Z,102371.75
2024-01-21T07:43:27.300Z,102374.59
2024-01-21T07:44:30.333Z,102376.84
2024-01-21T07:45:33.043Z,102376.38
2024-01-21T07:46:34.658Z,102373.78
2024-01-21T07:47:36.603Z,102366.44
2024-01-21T07:48:38.453Z,102370.56
2024-01-21T07:49:42.079Z,102377.44
2024-01-21T07:50:43.749Z,102376.84
2024-01-21T07:51:46.291Z,102381.63
2024-01-21T07:52:48.537Z,102379.03
2024-01-21T07:53:50.119Z,102380.78
2024-01-21T07:54:51.928Z,102380.19
2024-01-21T07:55:54.813Z,102378.03
2024-01-21T07:56:56.719Z,102375.88
2024-01-21T07:57:58.374Z,102382.38
2024-01-21T07:59:00.047Z,102380.53
2024-01-21T08:00:01.963Z,102381.69
2024-01-21T08:01:09.608Z,102382.72
2024-01-21T08:02:11.280Z,102381.03
2024-01-21T08:03:13.133Z,102378.00
2024-01-21T08:04:17.645Z,102380.56
2024-01-21T08:05:21.091Z,102371.69
2024-01-21T08:06:22.784Z,102362.69
2024-01-21T08:07:24.475Z,102363.13
2024-01-21T08:08:26.081Z,102372.00
2024-01-21T08:09:29.086Z,102375.69
2024-01-21T08:10:30.780Z,102373.31
2024-01-21T08:11:32.476Z,102374.22
2024-01-21T08:12:34.126Z,102379.59
2024-01-21T08:13:35.903Z,102375.13
2024-01-21T08:14:37.761Z,102379.19
2024-01-21T08:15:39.392Z,102384.78
2024-01-21T08:16:42.797Z,102374.72
2024-01-21T08:17:44.504Z,102365.03
2024-01-21T08:18:46.387Z,102365.31
2024-01-21T08:19:48.293Z,102359.78
2024-01-21T08:20:51.286Z,102359.78
2024-01-21T08:21:52.954Z,102344.06
2024-01-21T08:22:55.138Z,102349.81
2024-01-21T08:23:56.956Z,102353.31
2024-01-21T08:24:58.625Z,102340.63
2024-01-21T08:26:00.891Z,102341.13
2024-01-21T08:27:02.534Z,102338.28
2024-01-21T08:28:04.793Z,102343.72
2024-01-21T08:29:06.541Z,102337.75
2024-01-21T08:30:09.637Z,102337.88
2024-01-21T08:31:11.386Z,102326.78
2024-01-21T08:32:13.001Z,102324.59
2024-01-21T08:33:14.767Z,102321.91
2024-01-21T08:34:16.919Z,102319.59
2024-01-21T08:35:18.749Z,102318.56
2024-01-21T08:36:21.858Z,102321.56
2024-01-21T08:37:23.665Z,102321.69
2024-01-21T08:38:25.300Z,102315.09
2024-01-21T08:39:27.220Z,102307.91
2024-01-21T08:40:28.881Z,102319.66
2024-01-21T08:41:31.183Z,102327.38
2024-01-21T08:42:32.879Z,102323.34
2024-01-21T08:43:34.635Z,102322.34
2024-01-21T08:44:36.356Z,102327.03
2024-01-21T08:45:38.589Z,102320.69
2024-01-21T08:46:40.174Z,102317.72
2024-01-21T08:47:44.057Z,102332.31
2024-01-21T08:48:45.931Z,102337.09
2024-01-21T08:49:48.219Z,102323.44
2024-01-21T08:50:50.004Z,102333.66
2024-01-21T08:51:53.060Z,102328.47
2024-01-21T08:52:58.824Z,102330.44
2024-01-21T08:54:03.566Z,102331.72
2024-01-21T08:55:06.474Z,102324.47
2024-01-21T08:56:08.110Z,102324.34
2024-01-21T08:57:09.781Z,102328.09
2024-01-21T08:58:11.519Z,102324.50
2024-01-21T08:59:16.336Z,102325.78
2024-01-21T09:00:20.590Z,102330.47
2024-01-21T09:01:23.761Z,102327.38
2024-01-21T09:02:25.679Z,102319.69
2024-01-21T09:03:27.749Z,102315.31
2024-01-21T09:04:29.562Z,102315.41
2024-01-21T09:05:31.502Z,102312.03
2024-01-21T09:06:34.891Z,102328.34
2024-01-21T09:07:38.376Z,102317.34
2024-01-21T09:08:40.079Z,102324.88
2024-01-21T09:09:41.897Z,102329.03
2024-01-21T09:10:43.780Z,102326.78
2024-01-21T09:11:45.946Z,102322.22
2024-01-21T09:12:47.716Z,102314.13
2024-01-21T09:13:49.353Z,102321.59
2024-01-21T09:14:51.014Z,102315.03
2024-01-21T09:15:54.672Z,102313.50
2024-01-21T09:16:56.474Z,102311.50
2024-01-21T09:17:58.193Z,102308.91
2024-01-21T09:19:00.013Z,102300.63
2024-01-21T09:20:01.842Z,102295.94
2024-01-21T09:21:04.863Z,102297.22
2024-01-21T09:22:07.585Z,102298.28
2024-01-21T09:23:10.689Z,102295.91
2024-01-21T09:24:12.386Z,102293.72
2024-01-21T09:25:14.460Z,102303.69
2024-01-21T09:26:16.346Z,102288.78
2024-01-21T09:27:18.070Z,102299.91
2024-01-21T09:28:19.661Z,102291.34
2024-01-21T09:29:21.330Z,102290.84
2024-01-21T09:30:22.963Z,102297.19
2024-01-21T09:31:24.638Z,102298.84
2024-01-21T09:32:26.927Z,102301.69
2024-01-21T09:33:28.810Z,102304.06
2024-01-21T09:34:30.666Z,102296.28
2024-01-21T09:35:32.606Z,102300.41
2024-01-21T09:36:34.293Z,102293.94
2024-01-21T09:37:36.253Z,102299.34
2024-01-21T09:38:39.283Z,102294.41
2024-01-21T09:39:40.976Z,102300.00
2024-01-21T09:40:42.657Z,102298.19
2024-01-21T09:41:48.923Z,102298.84
2024-01-21T09:42:50.549Z,102284.91
2024-01-21T09:43:52.401Z,102289.06
2024-01-21T09:44:55.021Z,102300.09
2024-01-21T09:45:57.762Z,102288.78
2024-01-21T09:47:00.695Z,102294.63
2024-01-21T09:48:03.719Z,102287.50
2024-01-21T09:49:05.551Z,102293.69
2024-01-21T09:50:09.218Z,102287.53
2024-01-21T09:51:11.325Z,102291.66
2024-01-21T09:52:16.874Z,102293.06
2024-01-21T09:53:18.493Z,102285.41
2024-01-21T09:54:23.386Z,102286.69
2024-01-21T09:55:25.112Z,102289.66
2024-01-21T09:56:26.839Z,102286.09
2024-01-21T09:57:28.520Z,102287.06
2024-01-21T09:58:34.249Z,102285.88
2024-01-21T09:59:36.462Z,102285.63
2024-01-21T10:00:38.731Z,102275.97
2024-01-21T10:01:42.014Z,102274.22
2024-01-21T10:02:44.031Z,102276.22
2024-01-21T10:03:46.855Z,102269.25
2024-01-21T10:04:48.552Z,102268.81
2024-01-21T10:05:50.165Z,102257.88
2024-01-21T10:06:51.944Z,102254.28
2024-01-21T10:07:53.910Z,102248.75
2024-01-21T10:09:11.305Z,102257.91
2024-01-21T10:10:14.448Z,102254.75
2024-01-21T10:11:16.230Z,102256.31
2024-01-21T10:12:19.156Z,102251.13
2024-01-21T10:13:20.902Z,102241.66
2024-01-21T10:14:22.717Z,102251.81
2024-01-21T10:15:24.318Z,102251.00
2024-01-21T10:16:25.932Z,102245.00
2024-01-21T10:17:27.580Z,102230.44
2024-01-21T10:18:29.500Z,102239.09
2024-01-21T10:19:33.917Z,102237.25
2024-01-21T10:20:36.984Z,102234.00
2024-01-21T10:21:38.789Z,102226.41
2024-01-21T10:22:40.667Z,102239.09
2024-01-21T10:23:42.329Z,102229.59
2024-01-21T10:24:46.165Z,102227.00
2024-01-21T10:25:49.237Z,102235.47
2024-01-21T10:26:50.772Z,102224.16
2024-01-21T10:27:52.508Z,102222.34
2024-01-21T10:28:54.248Z,102214.22
2024-01-21T10:29:57.523Z,102210.06
2024-01-21T10:30:59.354Z,102200.00
2024-01-21T10:32:01.003Z,102184.84
2024-01-21T10:33:02.638Z,102179.63
2024-01-21T10:34:06.663Z,102181.97
2024-01-21T10:35:08.769Z,102171.00
2024-01-21T10:36:11.911Z,102175.50
2024-01-21T10:37:15.394Z,102180.88
2024-01-21T10:38:17.029Z,102173.28
2024-01-21T10:39:21.524Z,102185.16
2024-01-21T10:40:23.599Z,102185.94
2024-01-21T10:41:31.966Z,102185.59
2024-01-21T10:42:35.539Z,102184.31
2024-01-21T10:43:38.274Z,102195.06
2024-01-21T10:44:40.702Z,102194.97
2024-01-21T10:45:45.258Z,102180.97
2024-01-21T10:46:48.236Z,102186.19
2024-01-21T10:47:50.979Z,102197.69
2024-01-21T10:48:55.807Z,102185.94
2024-01-21T10:50:04.609Z,102180.63
2024-01-21T10:51:07.769Z,102185.72
2024-01-21T10:52:11.379Z,102192.41
2024-01-21T10:53:14.071Z,102199.19
2024-01-21T10:54:15.837Z,102185.72
2024-01-21T10:55:17.860Z,102185.03
2024-01-21T10:56:19.790Z,102181.84
2024-01-21T10:57:22.749Z,102183.22
2024-01-21T10:58:24.477Z,102188.66
2024-01-21T10:59:26.191Z,102189.22
2024-01-21T11:00:28.514Z,102192.63
2024-01-21T11:01:31.584Z,102186.34
2024-01-21T11:02:33.551Z,102186.78
2024-01-21T11:03:35.282Z,102195.28
2024-01-21T11:04:40.979Z,102189.63
2024-01-21T11:05:42.662Z,102188.41
2024-01-21T11:06:45.166Z,102188.94
2024-01-21T11:08:01.808Z,102184.94
2024-01-21T11:09:03.693Z,102189.63
2024-01-21T11:10:06.510Z,102187.22
2024-01-21T11:11:17.457Z,102195.78
2024-01-21T11:12:19.181Z,102181.16
2024-01-21T11:13:40.688Z,102174.59
2024-01-21T11:14:42.685Z,102175.34
2024-01-21T11:15:47.693Z,102179.28
2024-01-21T11:16:54.734Z,102182.03
2024-01-21T11:18:08.848Z,102180.38
2024-01-21T11:19:11.072Z,102175.50
2024-01-21T11:20:24.974Z,102173.22
2024-01-21T11:21:28.195Z,102181.03
2024-01-21T11:22:29.810Z,102178.91
2024-01-21T11:23:31.418Z,102178.47
2024-01-21T11:24:33.185Z,102167.22
2024-01-21T11:25:35.169Z,102168.88
2024-01-21T11:26:38.311Z,102163.88
2024-01-21T11:27:39.851Z,102164.59
2024-01-21T11:28:42.875Z,102165.00
2024-01-21T11:29:44.866Z,102167.06
2024-01-21T11:30:46.561Z,102162.94
2024-01-21T11:31:49.462Z,102166.06
2024-01-21T11:32:55.724Z,102164.34
2024-01-21T11:34:04.810Z,102162.72
2024-01-21T11:35:07.654Z,102157.94
2024-01-21T11:36:09.963Z,102160.66
2024-01-21T11:37:13.237Z,102156.56
2024-01-21T11:38:16.515Z,102156.75
2024-01-21T11:39:19.572Z,102156.66
2024-01-21T11:40:21.160Z,102149.72
2024-01-21T11:41:29.496Z,102152.78
2024-01-21T11:42:31.135Z,102159.84
2024-01-21T11:43:32.735Z,102160.34
2024-01-21T11:44:37.687Z,102157.72
2024-01-21T11:45:39.970Z,102157.66
2024-01-21T11:46:42.591Z,102153.41
2024-01-21T11:47:46.020Z,102146.28
2024-01-21T11:48:47.706Z,102155.56
2024-01-21T11:49:51.223Z,102140.94
2024-01-21T11:50:53.159Z,102144.63
2024-01-21T11:51:55.182Z,102146.75